메인 페이지
METAR-TAF:

METAR-TAF

공항 :

튀니스 카르타고 국제공항

튀니스, 튀니지

위도: 36-50N, 경도: 010-14E, 고도: 3m

현재 날씨관측

예보는 29분 전, 10:00시(UTC)에 발표되었습니다.
7kt
온도 14°C
습도 58%
기압 1025 hPa
시정 10km 이상
고도 2600ft 상공 구름 조금

METAR: DTTA 191000Z 18007KT 9999 FEW026 14/06 Q1025 NOSIG

시각: 11:29 (10:29 UTC)

예보

예보는 4 시간 49분 전, 05:40시(UTC)에 발표되었습니다.
예보 대상 시간: 19일 06시부터 20일 06시까지 (UTC)
남남서4kt
시정 10km 이상
고도 2600ft 상공 구름 조금
확률 40% :
일시적
19일 06시부터 19일 08시까지 (UTC)
시정: 4000m
고도 1000ft 상공 구름 조금
박무

TAF: DTTA 190540Z 1906/2006 21004KT 9999 FEW026 PROB40 TEMPO 1906/1908 4000 BR FEW010

4,000개 이상의 공항 관측 자료 및 예보 (METAR 및 TAF 보고).

지도상에서 검색 가능한 기상관측소가 노란 점과 빨간 점으로 표시되어 있습니다.

기상관측소 명을 보려면 표시 위로 마우스를 이동하세요.

날씨 관측과 예보를 보려면 클릭하세요.

지도 변경 : 확대하려면 엑스 표시가 있는 녹색 버튼, 축소하려면 빼기 표시가 있는 녹색 버튼, 다음 페이지의 지도를 보려면 녹색 화살표를 클릭하세요.


METAR-TAF: